Aérodrome :
LOGIN :

S'inscrire | Disclaimer

   EN    FR    IT 

 










Légende :    VFR   VFR Marginal   IFR   IFR Intensif   IFR Très Intensif
Visi : 
Plafond : 
>= 8 km
>= 3000ft
5 à 8 km
1000 à 3000 ft
1500m à 5 km
500 à 1000 ft
800 à 1500m
200 à 500 ft
< 800m
< 200 ft
Symboles :   Orages  Brouillard  Fortes neiges  Fortes précipitations  Vent > 20 kt
SIGMETs :   Divers  Orages  Givrage  Turbulence  Onde Orograph.  Cendres Volcan.






- Altitude de l'aérodrome : 1411 ft
- Code IATA : GVA


LSGG - Genève Cointrin

DERNIER METAR :
  • 152050Z VRB02KT CAVOK 07/06 Q1011 NOSIG

METARs EXPIRÉS :
  • 152020Z VRB01KT CAVOK 08/06 Q1011 NOSIG
  • 151950Z VRB01KT CAVOK 07/06 Q1011 NOSIG
  • 151920Z AUTO VRB01KT 9999 NSC 08/06 Q1011
  • 151850Z 23003KT 180V260 CAVOK 09/06 Q1011 NOSIG
  • 151820Z 23008KT CAVOK 10/06 Q1011 NOSIG

TAF TAF LSGG
Valide du 15 à 21h jusqu'au 17 à 03h UTC


152025Z 1521/1703 20005KT CAVOK TX10/1614Z TN04/1606Z
PROB30
TEMPO 1604/1609 0600 FG VV003
ATIS : +41 22 417 40 81



MET'MAP, la Météo Aéronautique d'un coup d'oeil ! - Copyright ORBIFLY Décembre 2007 - Disclaimer

ORBIFLY MET'MAP TEAM :

Programmation & Développement : Alexandra Zaïnal
Sur une idée originale de : Baudouin d'Aumeries
Assistance à la programmation : Marc-Olivier Méhu
Soutien technique & logistique : Manuel Goepfert

Contact : metmap@orbifly.com




SOURCES & CREDITS :

   NOAA